createdAt,value
2023-04-19T00:00:02.913Z,75.67
2023-04-19T00:01:02.692Z,75.77
2023-04-19T00:02:03.112Z,75.87
2023-04-19T00:03:03.530Z,75.87
2023-04-19T00:04:02.820Z,75.98
2023-04-19T00:05:03.071Z,76.07
2023-04-19T00:06:02.568Z,76.38
2023-04-19T00:07:02.229Z,76.18
2023-04-19T00:08:02.606Z,76.28
2023-04-19T00:09:02.274Z,76.28
2023-04-19T00:10:02.860Z,76.38
2023-04-19T00:11:02.424Z,76.38
2023-04-19T00:12:02.697Z,76.48
2023-04-19T00:13:02.609Z,76.59
2023-04-19T00:14:02.966Z,76.59
2023-04-19T00:15:02.533Z,76.59
2023-04-19T00:16:02.438Z,76.92
2023-04-19T00:17:02.010Z,77.09
2023-04-19T00:18:02.539Z,76.89
2023-04-19T00:19:01.988Z,76.59
2023-04-19T00:20:01.953Z,76.48
2023-04-19T00:21:02.450Z,76.48
2023-04-19T00:22:02.926Z,76.59
2023-04-19T00:23:02.640Z,76.68
2023-04-19T00:24:02.488Z,76.48
2023-04-19T00:25:02.369Z,76.59
2023-04-19T00:26:02.276Z,76.59
2023-04-19T00:27:01.754Z,76.48
2023-04-19T00:28:02.259Z,76.79
2023-04-19T00:29:02.365Z,77.03
2023-04-19T00:30:02.032Z,77.23
2023-04-19T00:31:01.933Z,77.23
2023-04-19T00:32:02.248Z,77.33
2023-04-19T00:33:02.638Z,77.64
2023-04-19T00:34:02.213Z,77.84
2023-04-19T00:35:02.038Z,77.84
2023-04-19T00:36:02.434Z,77.74
2023-04-19T00:37:02.324Z,77.44
2023-04-19T00:38:02.233Z,77.53
2023-04-19T00:39:02.675Z,77.50
2023-04-19T00:40:02.477Z,77.40
2023-04-19T00:41:02.281Z,77.29
2023-04-19T00:42:01.896Z,77.33
2023-04-19T00:43:01.965Z,77.44
2023-04-19T00:44:02.365Z,77.53
2023-04-19T00:45:02.225Z,77.64
2023-04-19T00:46:02.115Z,77.84
2023-04-19T00:47:02.116Z,77.84
2023-04-19T00:48:02.151Z,77.84
2023-04-19T00:49:02.596Z,78.05
2023-04-19T00:50:02.024Z,78.25
2023-04-19T00:51:02.425Z,78.35
2023-04-19T00:52:02.068Z,78.45
2023-04-19T00:53:02.645Z,78.35
2023-04-19T00:54:02.465Z,78.35
2023-04-19T00:55:02.363Z,78.45
2023-04-19T00:56:02.304Z,78.55
2023-04-19T00:57:02.357Z,78.35
2023-04-19T00:58:02.300Z,78.25
2023-04-19T00:59:02.597Z,78.35
2023-04-19T01:00:02.474Z,78.15
2023-04-19T01:01:02.326Z,78.25
2023-04-19T01:02:03.126Z,78.05
2023-04-19T01:03:03.393Z,78.15
2023-04-19T01:04:03.044Z,77.74
2023-04-19T01:05:03.296Z,76.82
2023-04-19T01:06:02.964Z,76.38
2023-04-19T01:07:02.975Z,76.28
2023-04-19T01:08:03.288Z,76.48
2023-04-19T01:09:02.996Z,76.38
2023-04-19T01:10:03.238Z,76.42
2023-04-19T01:11:02.807Z,76.31
2023-04-19T01:12:02.498Z,76.31
2023-04-19T01:13:02.640Z,76.92
2023-04-19T01:14:02.591Z,77.64
2023-04-19T01:15:02.461Z,76.42
2023-04-19T01:16:02.369Z,76.31
2023-04-19T01:17:02.926Z,77.44
2023-04-19T01:18:02.903Z,77.74
2023-04-19T01:19:03.017Z,77.84
2023-04-19T01:20:02.935Z,77.84
2023-04-19T01:21:03.325Z,77.03
2023-04-19T01:22:03.058Z,76.52
2023-04-19T01:23:03.009Z,75.81
2023-04-19T01:24:02.942Z,76.72
2023-04-19T01:25:02.865Z,77.06
2023-04-19T01:26:02.811Z,77.78
2023-04-19T01:27:03.297Z,77.47
2023-04-19T01:28:03.464Z,77.47
2023-04-19T01:29:03.459Z,77.06
2023-04-19T01:30:03.365Z,76.86
2023-04-19T01:31:03.708Z,76.96
2023-04-19T01:32:03.254Z,77.98
2023-04-19T01:33:03.289Z,76.04
2023-04-19T01:34:03.684Z,76.35
2023-04-19T01:35:03.422Z,75.54
2023-04-19T01:36:03.363Z,75.64
2023-04-19T01:37:03.175Z,74.82
2023-04-19T01:38:02.897Z,74.93
2023-04-19T01:39:03.204Z,76.04
2023-04-19T01:40:02.696Z,75.13
2023-04-19T01:41:03.044Z,76.35
2023-04-19T01:42:02.968Z,76.56
2023-04-19T01:43:03.175Z,77.00
2023-04-19T01:44:02.880Z,77.20
2023-04-19T01:45:02.770Z,76.90
2023-04-19T01:46:03.398Z,78.02
2023-04-19T01:47:03.091Z,77.10
2023-04-19T01:48:03.488Z,78.22
2023-04-19T01:49:03.146Z,77.61
2023-04-19T01:50:02.872Z,77.61
2023-04-19T01:51:03.551Z,77.10
2023-04-19T01:52:03.198Z,79.07
2023-04-19T01:53:03.077Z,79.79
2023-04-19T01:54:02.917Z,79.14
2023-04-19T01:55:03.499Z,77.30
2023-04-19T01:56:03.424Z,77.51
2023-04-19T01:57:03.183Z,77.10
2023-04-19T01:58:03.637Z,76.49
2023-04-19T01:59:03.270Z,77.81
2023-04-19T02:00:03.095Z,78.46
2023-04-19T02:01:03.234Z,78.87
2023-04-19T02:02:03.284Z,79.48
2023-04-19T02:03:03.406Z,80.40
2023-04-19T02:04:02.823Z,79.58
2023-04-19T02:05:03.005Z,78.87
2023-04-19T02:06:02.958Z,79.79
2023-04-19T02:07:02.592Z,80.43
2023-04-19T02:08:02.568Z,79.82
2023-04-19T02:09:02.337Z,79.58
2023-04-19T02:10:02.263Z,78.87
2023-04-19T02:11:02.427Z,78.46
2023-04-19T02:12:03.062Z,78.87
2023-04-19T02:13:03.279Z,79.79
2023-04-19T02:14:02.987Z,80.43
2023-04-19T02:15:02.824Z,80.64
2023-04-19T02:16:03.023Z,79.93
2023-04-19T02:17:02.701Z,80.02
2023-04-19T02:18:02.649Z,80.64
2023-04-19T02:19:02.559Z,80.54
2023-04-19T02:20:02.414Z,79.82
2023-04-19T02:21:02.412Z,79.52
2023-04-19T02:22:03.025Z,79.93
2023-04-19T02:23:02.801Z,80.64
2023-04-19T02:24:02.897Z,80.43
2023-04-19T02:25:03.203Z,80.74
2023-04-19T02:26:02.872Z,79.93
2023-04-19T02:27:03.313Z,81.18
2023-04-19T02:28:03.156Z,80.98
2023-04-19T02:29:04.042Z,80.57
2023-04-19T02:30:03.247Z,80.07
2023-04-19T02:31:03.145Z,79.86
2023-04-19T02:32:02.842Z,79.14
2023-04-19T02:33:02.630Z,79.45
2023-04-19T02:34:02.501Z,81.18
2023-04-19T02:35:02.427Z,79.55
2023-04-19T02:36:02.898Z,79.04
2023-04-19T02:37:03.393Z,79.55
2023-04-19T02:38:03.029Z,78.74
2023-04-19T02:39:02.905Z,78.23
2023-04-19T02:40:02.825Z,78.23
2023-04-19T02:41:03.376Z,78.33
2023-04-19T02:42:02.760Z,78.53
2023-04-19T02:43:02.330Z,78.53
2023-04-19T02:44:02.307Z,78.33
2023-04-19T02:45:02.244Z,78.94
2023-04-19T02:46:02.412Z,79.04
2023-04-19T02:47:02.910Z,78.43
2023-04-19T02:48:02.751Z,80.68
2023-04-19T02:49:02.801Z,79.41
2023-04-19T02:50:02.743Z,78.84
2023-04-19T02:51:02.666Z,78.39
2023-04-19T02:52:03.248Z,78.60
2023-04-19T02:53:02.869Z,79.32
2023-04-19T02:54:03.030Z,80.23
2023-04-19T02:55:02.907Z,80.78
2023-04-19T02:56:02.800Z,81.70
2023-04-19T02:57:03.379Z,82.61
2023-04-19T02:58:03.202Z,83.16
2023-04-19T02:59:03.340Z,82.86
2023-04-19T03:00:03.041Z,82.86
2023-04-19T03:01:03.120Z,82.86
2023-04-19T03:02:02.844Z,82.86
2023-04-19T03:03:02.819Z,82.96
2023-04-19T03:05:02.487Z,82.65
2023-04-19T03:06:02.587Z,82.24
2023-04-19T03:07:02.349Z,82.24
2023-04-19T03:08:03.017Z,82.35
2023-04-19T03:09:02.699Z,81.94
2023-04-19T03:10:02.522Z,81.32
2023-04-19T03:11:02.486Z,81.43
2023-04-19T03:12:03.285Z,80.82
2023-04-19T03:13:02.902Z,80.30
2023-04-19T03:14:02.809Z,79.90
2023-04-19T03:15:02.818Z,80.68
2023-04-19T03:16:02.749Z,81.32
2023-04-19T03:17:02.907Z,80.61
2023-04-19T03:18:03.023Z,80.88
2023-04-19T03:19:02.984Z,82.35
2023-04-19T03:20:02.925Z,81.94
2023-04-19T03:21:02.903Z,82.65
2023-04-19T03:22:01.918Z,83.61
2023-04-19T03:23:01.888Z,84.42
2023-04-19T03:24:02.494Z,83.81
2023-04-19T03:25:02.172Z,83.81
2023-04-19T03:26:02.114Z,84.74
2023-04-19T03:27:01.962Z,83.92
2023-04-19T03:28:02.239Z,83.40
2023-04-19T03:29:02.597Z,84.42
2023-04-19T03:30:02.275Z,85.18
2023-04-19T03:31:02.060Z,84.42
2023-04-19T03:32:01.999Z,83.61
2023-04-19T03:33:02.470Z,83.92
2023-04-19T03:34:02.354Z,83.06
2023-04-19T03:35:02.086Z,82.65
2023-04-19T03:36:02.519Z,82.24
2023-04-19T03:37:02.362Z,82.24
2023-04-19T03:38:02.974Z,82.96
2023-04-19T03:39:02.616Z,83.37
2023-04-19T03:40:02.398Z,83.98
2023-04-19T03:41:02.920Z,84.74
2023-04-19T03:42:02.650Z,85.24
2023-04-19T03:43:03.103Z,86.10
2023-04-19T03:44:03.047Z,86.10
2023-04-19T03:45:03.293Z,85.89
2023-04-19T03:46:02.773Z,85.49
2023-04-19T03:47:02.849Z,84.83
2023-04-19T03:48:03.292Z,83.71
2023-04-19T03:49:03.240Z,83.26
2023-04-19T03:50:03.067Z,82.86
2023-04-19T03:51:03.199Z,83.26
2023-04-19T03:52:02.111Z,82.96
2023-04-19T03:53:02.648Z,82.86
2023-04-19T03:54:02.567Z,83.06
2023-04-19T03:55:02.120Z,83.23
2023-04-19T03:56:02.621Z,83.53
2023-04-19T03:57:02.338Z,83.63
2023-04-19T03:58:02.939Z,83.94
2023-04-19T03:59:02.595Z,84.66
2023-04-19T04:00:02.493Z,84.66
2023-04-19T04:01:02.593Z,84.14
2023-04-19T04:02:02.719Z,84.04
2023-04-19T04:03:02.919Z,84.25
2023-04-19T04:04:04.826Z,84.66
2023-04-19T04:05:02.664Z,85.06
2023-04-19T04:06:02.863Z,84.55
2023-04-19T04:07:02.683Z,83.70
2023-04-19T04:08:03.303Z,83.70
2023-04-19T04:09:03.255Z,84.31
2023-04-19T04:10:03.260Z,84.92
2023-04-19T04:11:02.623Z,85.33
2023-04-19T04:12:02.270Z,84.82
2023-04-19T04:13:02.609Z,84.31
2023-04-19T04:14:02.387Z,84.20
2023-04-19T04:15:02.327Z,84.72
2023-04-19T04:16:02.364Z,84.51
2023-04-19T04:17:02.879Z,84.51
2023-04-19T04:18:03.290Z,83.70
2023-04-19T04:19:03.108Z,83.59
2023-04-19T04:20:03.141Z,83.35
2023-04-19T04:21:02.983Z,84.00
2023-04-19T04:22:02.659Z,84.00
2023-04-19T04:23:02.677Z,83.76
2023-04-19T04:24:03.054Z,83.45
2023-04-19T04:25:02.990Z,82.94
2023-04-19T04:26:02.972Z,82.84
2023-04-19T04:27:02.814Z,83.25
2023-04-19T04:28:03.196Z,83.56
2023-04-19T04:29:03.350Z,83.86
2023-04-19T04:30:03.275Z,83.45
2023-04-19T04:31:03.050Z,83.35
2023-04-19T04:32:03.203Z,83.35
2023-04-19T04:33:03.125Z,83.04
2023-04-19T04:34:02.917Z,83.04
2023-04-19T04:35:02.991Z,82.94
2023-04-19T04:36:02.993Z,83.65
2023-04-19T04:37:02.711Z,83.15
2023-04-19T04:38:08.466Z,83.25
2023-04-19T04:39:02.530Z,83.25
2023-04-19T04:40:02.466Z,83.04
2023-04-19T04:41:03.095Z,83.45
2023-04-19T04:42:02.855Z,83.35
2023-04-19T04:43:02.921Z,83.76
2023-04-19T04:45:02.835Z,84.17
2023-04-19T04:46:02.974Z,84.27
2023-04-19T04:47:03.017Z,84.06
2023-04-19T04:48:03.217Z,84.31
2023-04-19T04:49:02.797Z,84.27
2023-04-19T04:50:02.788Z,83.86
2023-04-19T04:51:02.821Z,84.06
2023-04-19T04:52:02.529Z,83.86
2023-04-19T04:53:02.582Z,83.86
2023-04-19T04:54:02.584Z,83.96
2023-04-19T04:55:02.625Z,83.65
2023-04-19T04:56:02.642Z,83.25
2023-04-19T04:57:02.597Z,83.35
2023-04-19T04:58:02.647Z,83.01
2023-04-19T04:59:02.687Z,82.80
2023-04-19T05:00:02.495Z,83.62
2023-04-19T05:01:02.851Z,83.62
2023-04-19T05:02:02.795Z,82.70
2023-04-19T05:03:03.326Z,82.70
2023-04-19T05:04:03.273Z,82.80
2023-04-19T05:05:03.154Z,82.80
2023-04-19T05:06:03.167Z,82.60
2023-04-19T05:07:02.139Z,82.80
2023-04-19T05:08:02.414Z,82.80
2023-04-19T05:09:02.315Z,82.50
2023-04-19T05:10:02.012Z,82.50
2023-04-19T05:11:01.981Z,82.80
2023-04-19T05:12:02.374Z,82.50
2023-04-19T05:13:02.694Z,82.90
2023-04-19T05:14:02.970Z,82.70
2023-04-19T05:15:02.789Z,82.46
2023-04-19T05:16:03.058Z,82.46
2023-04-19T05:17:03.374Z,82.15
2023-04-19T05:18:02.770Z,82.26
2023-04-19T05:19:02.725Z,82.56
2023-04-19T05:20:02.841Z,82.46
2023-04-19T05:21:02.876Z,82.05
2023-04-19T05:22:02.699Z,81.65
2023-04-19T05:23:02.810Z,81.34
2023-04-19T05:24:03.084Z,81.54
2023-04-19T05:25:02.975Z,82.56
2023-04-19T05:26:02.557Z,82.56
2023-04-19T05:27:02.209Z,82.35
2023-04-19T05:28:01.956Z,82.35
2023-04-19T05:29:02.069Z,82.15
2023-04-19T05:30:02.300Z,81.85
2023-04-19T05:31:01.994Z,81.54
2023-04-19T05:32:02.716Z,81.51
2023-04-19T05:33:02.765Z,81.51
2023-04-19T05:34:02.745Z,81.20
2023-04-19T05:35:02.390Z,81.60
2023-04-19T05:36:02.666Z,81.95
2023-04-19T05:37:03.022Z,81.91
2023-04-19T05:38:03.132Z,81.95
2023-04-19T05:39:03.060Z,82.15
2023-04-19T05:40:02.783Z,82.12
2023-04-19T05:41:02.859Z,81.71
2023-04-19T05:42:02.678Z,81.81
2023-04-19T05:43:02.712Z,81.95
2023-04-19T05:44:02.792Z,82.35
2023-04-19T05:45:03.942Z,82.56
2023-04-19T05:46:02.371Z,82.26
2023-04-19T05:47:03.243Z,82.01
2023-04-19T05:48:03.203Z,81.71
2023-04-19T05:49:02.703Z,81.40
2023-04-19T05:50:03.244Z,81.81
2023-04-19T05:51:03.063Z,81.30
2023-04-19T05:52:02.778Z,81.20
2023-04-19T05:53:02.818Z,81.71
2023-04-19T05:54:02.714Z,81.51
2023-04-19T05:55:02.773Z,81.40
2023-04-19T05:56:02.316Z,81.06
2023-04-19T05:57:03.137Z,80.96
2023-04-19T05:58:02.973Z,81.06
2023-04-19T05:59:03.018Z,80.55
2023-04-19T06:00:03.177Z,80.65
2023-04-19T06:01:02.546Z,80.99
2023-04-19T06:02:03.335Z,81.20
2023-04-19T06:03:03.319Z,80.96
2023-04-19T06:04:03.254Z,80.65
2023-04-19T06:05:09.401Z,80.35
2023-04-19T06:06:03.111Z,80.55
2023-04-19T06:07:06.039Z,80.04
2023-04-19T06:08:03.695Z,80.15
2023-04-19T06:09:03.188Z,80.24
2023-04-19T06:10:03.293Z,80.15
2023-04-19T06:11:11.825Z,80.04
2023-04-19T06:12:02.932Z,80.11
2023-04-19T06:13:02.557Z,80.04
2023-04-19T06:14:02.472Z,80.45
2023-04-19T06:15:02.806Z,80.24
2023-04-19T06:16:02.878Z,80.24
2023-04-19T06:17:03.598Z,80.24
2023-04-19T06:18:03.352Z,80.38
2023-04-19T06:19:03.273Z,80.79
2023-04-19T06:20:03.302Z,80.83
2023-04-19T06:21:03.306Z,81.34
2023-04-19T06:22:03.051Z,81.44
2023-04-19T06:23:02.778Z,81.54
2023-04-19T06:24:02.466Z,81.65
2023-04-19T06:25:02.968Z,81.60
2023-04-19T06:26:02.511Z,81.60
2023-04-19T06:27:02.975Z,81.30
2023-04-19T06:28:03.648Z,80.99
2023-04-19T06:29:03.315Z,80.49
2023-04-19T06:30:03.250Z,80.79
2023-04-19T06:31:03.114Z,80.90
2023-04-19T06:32:02.303Z,80.90
2023-04-19T06:33:02.306Z,80.49
2023-04-19T06:34:02.475Z,79.98
2023-04-19T06:35:02.550Z,79.74
2023-04-19T06:36:02.510Z,79.53
2023-04-19T06:37:02.864Z,78.96
2023-04-19T06:38:02.970Z,78.86
2023-04-19T06:39:02.929Z,79.16
2023-04-19T06:40:02.880Z,78.86
2023-04-19T06:41:02.811Z,78.96
2023-04-19T06:42:02.366Z,79.10
2023-04-19T06:43:02.216Z,79.50
2023-04-19T06:44:02.624Z,79.57
2023-04-19T06:45:02.550Z,79.68
2023-04-19T06:46:02.564Z,79.27
2023-04-19T06:47:02.677Z,79.16
2023-04-19T06:48:02.859Z,79.27
2023-04-19T06:49:02.634Z,78.52
2023-04-19T06:50:03.033Z,78.11
2023-04-19T06:51:02.801Z,78.45
2023-04-19T06:52:03.408Z,78.76
2023-04-19T06:53:04.814Z,78.35
2023-04-19T06:54:02.903Z,78.66
2023-04-19T06:55:02.921Z,78.62
2023-04-19T06:56:02.996Z,78.62
2023-04-19T06:57:02.872Z,78.62
2023-04-19T06:58:02.977Z,77.91
2023-04-19T06:59:03.041Z,76.99
2023-04-19T07:00:02.962Z,77.20
2023-04-19T07:01:03.035Z,77.40
2023-04-19T07:02:02.209Z,77.40
2023-04-19T07:03:02.319Z,77.26
2023-04-19T07:04:02.719Z,76.95
2023-04-19T07:05:02.044Z,76.75
2023-04-19T07:06:02.062Z,76.75
2023-04-19T07:07:02.506Z,76.95
2023-04-19T07:08:02.334Z,76.95
2023-04-19T07:09:02.258Z,77.06
2023-04-19T07:10:02.294Z,75.73
2023-04-19T07:11:02.651Z,75.43
2023-04-19T07:12:02.788Z,75.84
2023-04-19T07:13:02.643Z,75.53
2023-04-19T07:14:02.968Z,75.33
2023-04-19T07:15:03.027Z,75.63
2023-04-19T07:16:03.250Z,75.12
2023-04-19T07:17:02.113Z,75.53
2023-04-19T07:18:02.401Z,75.53
2023-04-19T07:19:02.483Z,76.04
2023-04-19T07:20:02.461Z,75.94
2023-04-19T07:21:01.923Z,75.70
2023-04-19T07:22:02.688Z,75.29
2023-04-19T07:23:02.982Z,75.40
2023-04-19T07:24:03.061Z,75.09
2023-04-19T07:25:03.321Z,74.88
2023-04-19T07:26:03.156Z,74.68
2023-04-19T07:27:02.281Z,74.48
2023-04-19T07:28:02.429Z,75.19
2023-04-19T07:29:02.501Z,75.46
2023-04-19T07:30:02.631Z,74.44
2023-04-19T07:31:02.316Z,74.85
2023-04-19T07:32:02.777Z,75.36
2023-04-19T07:33:02.744Z,74.82
2023-04-19T07:34:02.809Z,74.31
2023-04-19T07:35:02.752Z,74.41
2023-04-19T07:36:02.796Z,73.66
2023-04-19T07:37:02.205Z,74.17
2023-04-19T07:38:02.333Z,73.36
2023-04-19T07:39:02.396Z,73.43
2023-04-19T07:40:02.280Z,72.92
2023-04-19T07:41:02.472Z,72.92
2023-04-19T07:42:02.364Z,72.48
2023-04-19T07:43:02.403Z,72.38
2023-04-19T07:44:02.337Z,72.04
2023-04-19T07:45:02.379Z,72.65
2023-04-19T07:46:02.601Z,71.23
2023-04-19T07:47:02.496Z,70.89
2023-04-19T07:48:02.373Z,71.30
2023-04-19T07:49:02.381Z,71.00
2023-04-19T07:50:02.474Z,70.59
2023-04-19T07:51:02.532Z,69.24
2023-04-19T07:52:02.776Z,68.94
2023-04-19T07:53:02.318Z,68.94
2023-04-19T07:54:02.298Z,68.13
2023-04-19T07:55:02.490Z,68.50
2023-04-19T07:56:02.646Z,69.41
2023-04-19T07:57:02.591Z,68.26
2023-04-19T07:58:02.388Z,67.76
2023-04-19T07:59:08.347Z,67.86
2023-04-19T08:00:02.969Z,66.82
2023-04-19T08:01:02.856Z,66.31
2023-04-19T08:02:02.264Z,65.91
2023-04-19T08:03:02.320Z,66.41
2023-04-19T08:04:02.554Z,64.90
2023-04-19T08:05:02.544Z,65.70
2023-04-19T08:06:02.221Z,66.21
2023-04-19T08:07:02.377Z,66.11
2023-04-19T08:08:02.447Z,65.10
2023-04-19T08:09:02.112Z,65.30
2023-04-19T08:10:02.028Z,64.59
2023-04-19T08:11:02.329Z,65.91
2023-04-19T08:12:02.461Z,63.78
2023-04-19T08:13:06.008Z,63.38
2023-04-19T08:14:12.095Z,64.09
2023-04-19T08:15:14.828Z,63.10
2023-04-19T08:16:40.300Z,64.19
2023-04-19T08:18:02.744Z,63.38
2023-04-19T08:19:02.712Z,62.07
2023-04-19T08:20:02.850Z,62.67
2023-04-19T08:21:02.728Z,62.16
2023-04-19T08:22:02.989Z,61.76
2023-04-19T08:23:10.860Z,62.04
2023-04-19T08:24:02.958Z,61.33
2023-04-19T08:25:03.071Z,61.05
2023-04-19T08:26:02.887Z,61.05
2023-04-19T08:27:02.629Z,61.56
2023-04-19T08:28:02.711Z,61.36
2023-04-19T08:29:02.743Z,61.87
2023-04-19T08:30:02.747Z,61.56
2023-04-19T08:31:02.759Z,62.07
2023-04-19T08:32:02.491Z,61.96
2023-04-19T08:33:02.054Z,61.94
2023-04-19T08:34:02.122Z,61.83
2023-04-19T08:35:01.970Z,61.83
2023-04-19T08:36:02.070Z,61.20
2023-04-19T08:37:04.567Z,61.30
2023-04-19T08:38:03.341Z,60.29
2023-04-19T08:39:08.166Z,61.40
2023-04-19T08:40:02.842Z,62.79
2023-04-19T08:41:02.909Z,61.47
2023-04-19T08:42:07.426Z,60.94
2023-04-19T08:43:03.011Z,60.13
2023-04-19T08:44:02.532Z,60.53
2023-04-19T08:45:26.302Z,60.31
2023-04-19T08:46:02.649Z,59.30
2023-04-19T08:47:03.179Z,59.42
2023-04-19T08:48:03.496Z,60.13
2023-04-19T08:49:03.190Z,59.70
2023-04-19T08:51:05.388Z,60.24
2023-04-19T08:52:02.426Z,60.00
2023-04-19T08:53:12.373Z,60.41
2023-04-19T08:54:02.470Z,59.50
2023-04-19T08:55:02.213Z,59.90
2023-04-19T08:56:10.624Z,60.28
2023-04-19T08:57:02.508Z,60.48
2023-04-19T08:58:03.703Z,59.67
2023-04-19T08:59:15.790Z,57.35
2023-04-19T09:00:02.214Z,57.56
2023-04-19T09:01:02.289Z,58.76
2023-04-19T09:02:03.207Z,58.56
2023-04-19T09:03:03.099Z,58.14
2023-04-19T09:04:10.187Z,58.44
2023-04-19T09:05:03.041Z,56.72
2023-04-19T09:06:02.896Z,56.42
2023-04-19T09:07:02.348Z,57.43
2023-04-19T09:08:02.342Z,56.60
2023-04-19T09:09:02.379Z,55.71
2023-04-19T09:10:03.345Z,56.42
2023-04-19T09:11:02.254Z,56.12
2023-04-19T09:12:02.498Z,54.50
2023-04-19T09:13:02.582Z,54.91
2023-04-19T09:14:02.679Z,55.01
2023-04-19T09:15:02.984Z,54.58
2023-04-19T09:16:02.772Z,55.19
2023-04-19T09:17:03.247Z,53.98
2023-04-19T09:18:03.297Z,54.79
2023-04-19T09:20:03.526Z,55.96
2023-04-19T09:21:03.186Z,55.66
2023-04-19T09:22:02.565Z,55.23
2023-04-19T09:23:02.570Z,54.23
2023-04-19T09:24:03.639Z,53.83
2023-04-19T09:25:35.292Z,53.25
2023-04-19T09:26:21.495Z,53.38
2023-04-19T09:27:03.342Z,53.38
2023-04-19T09:28:03.415Z,53.09
2023-04-19T09:29:03.541Z,54.00
2023-04-19T09:30:03.184Z,53.40
2023-04-19T09:31:15.127Z,53.52
2023-04-19T09:32:02.840Z,53.83
2023-04-19T09:33:02.466Z,54.13
2023-04-19T09:34:02.270Z,54.46
2023-04-19T09:35:02.820Z,54.96
2023-04-19T09:36:02.620Z,55.19
2023-04-19T09:37:12.169Z,55.69
2023-04-19T09:38:06.746Z,55.49
2023-04-19T09:39:03.094Z,56.77
2023-04-19T09:40:03.099Z,55.87
2023-04-19T09:41:03.170Z,56.65
2023-04-19T09:42:02.267Z,54.81
2023-04-19T09:43:12.887Z,54.10
2023-04-19T09:45:28.379Z,55.39
2023-04-19T09:46:02.648Z,54.66
2023-04-19T09:47:02.743Z,53.65
2023-04-19T09:48:02.692Z,53.55
2023-04-19T09:49:09.440Z,53.55
2023-04-19T09:50:08.911Z,54.46
2023-04-19T09:51:07.318Z,53.63
2023-04-19T09:52:02.747Z,52.44
2023-04-19T09:53:02.779Z,54.05
2023-04-19T09:54:03.212Z,54.05
2023-04-19T09:55:04.761Z,53.25
2023-04-19T09:56:04.364Z,53.85
2023-04-19T09:57:02.380Z,54.23
2023-04-19T09:58:02.436Z,54.20
2023-04-19T09:59:12.890Z,54.60
2023-04-19T10:00:02.334Z,53.97
2023-04-19T10:01:13.342Z,52.47
2023-04-19T10:02:02.824Z,51.97
2023-04-19T10:03:02.927Z,51.09
2023-04-19T10:04:19.816Z,52.80
2023-04-19T10:05:19.843Z,51.99
2023-04-19T10:06:10.635Z,51.61
2023-04-19T10:08:02.400Z,51.93
2023-04-19T10:09:02.357Z,52.54
2023-04-19T10:10:16.107Z,52.54
2023-04-19T10:11:02.338Z,53.32
2023-04-19T10:12:13.175Z,52.82
2023-04-19T10:14:02.555Z,52.22
2023-04-19T10:15:02.598Z,51.41
2023-04-19T10:16:15.602Z,51.73
2023-04-19T10:17:02.715Z,52.31
2023-04-19T10:18:03.153Z,52.51
2023-04-19T10:19:02.657Z,51.21
2023-04-19T10:20:02.558Z,51.81
2023-04-19T10:21:02.655Z,51.89
2023-04-19T10:22:02.722Z,52.19
2023-04-19T10:23:03.091Z,51.99
2023-04-19T10:24:03.225Z,50.68
2023-04-19T10:25:02.993Z,49.57
2023-04-19T10:26:02.752Z,50.08
2023-04-19T10:27:03.723Z,51.18
2023-04-19T10:28:03.585Z,51.06
2023-04-19T10:29:03.594Z,51.76
2023-04-19T10:30:04.561Z,50.86
2023-04-19T10:31:03.412Z,49.65
2023-04-19T10:32:02.504Z,50.35
2023-04-19T10:33:02.586Z,49.35
2023-04-19T10:34:02.448Z,49.65
2023-04-19T10:35:02.509Z,48.65
2023-04-19T10:36:02.367Z,47.34
2023-04-19T10:37:03.002Z,46.46
2023-04-19T10:38:02.952Z,46.96
2023-04-19T10:39:03.321Z,47.08
2023-04-19T10:40:03.056Z,47.86
2023-04-19T10:41:03.126Z,48.07
2023-04-19T10:42:03.182Z,46.73
2023-04-19T10:43:03.253Z,46.41
2023-04-19T10:44:03.448Z,46.01
2023-04-19T10:45:03.477Z,43.70
2023-04-19T10:46:03.435Z,44.00
2023-04-19T10:47:02.841Z,43.40
2023-04-19T10:48:02.728Z,44.51
2023-04-19T10:49:03.239Z,45.91
2023-04-19T10:50:03.065Z,44.28
2023-04-19T10:51:03.099Z,43.90
2023-04-19T10:52:03.391Z,44.71
2023-04-19T10:53:03.494Z,44.79
2023-04-19T10:54:03.381Z,44.79
2023-04-19T10:55:03.211Z,44.38
2023-04-19T10:56:03.331Z,45.79
2023-04-19T10:57:03.367Z,45.67
2023-04-19T10:58:03.375Z,45.17
2023-04-19T10:59:03.323Z,43.04
2023-04-19T11:00:03.296Z,41.75
2023-04-19T11:01:03.571Z,42.13
2023-04-19T11:02:02.772Z,42.05
2023-04-19T11:03:03.057Z,41.85
2023-04-19T11:04:03.204Z,41.25
2023-04-19T11:05:03.036Z,40.33
2023-04-19T11:06:02.846Z,42.13
2023-04-19T11:07:03.248Z,42.94
2023-04-19T11:08:02.968Z,41.93
2023-04-19T11:09:03.511Z,40.43
2023-04-19T11:10:03.567Z,42.44
2023-04-19T11:11:03.063Z,42.94
2023-04-19T11:12:02.785Z,41.74
2023-04-19T11:13:02.954Z,42.24
2023-04-19T11:14:02.579Z,41.83
2023-04-19T11:15:02.415Z,42.54
2023-04-19T11:16:02.943Z,42.11
2023-04-19T11:17:03.155Z,41.41
2023-04-19T11:18:12.450Z,42.80
2023-04-19T11:19:03.150Z,40.29
2023-04-19T11:20:03.085Z,39.71
2023-04-19T11:21:03.013Z,40.43
2023-04-19T11:22:03.141Z,41.33
2023-04-19T11:23:03.177Z,40.43
2023-04-19T11:24:02.864Z,39.14
2023-04-19T11:25:03.034Z,40.67
2023-04-19T11:26:02.951Z,40.37
2023-04-19T11:27:02.748Z,40.06
2023-04-19T11:28:03.070Z,40.77
2023-04-19T11:29:02.888Z,40.67
2023-04-19T11:30:02.946Z,41.45
2023-04-19T11:31:02.706Z,43.14
2023-04-19T11:32:02.861Z,42.41
2023-04-19T11:33:03.199Z,42.21
2023-04-19T11:34:03.133Z,43.90
2023-04-19T11:35:03.025Z,44.00
2023-04-19T11:36:03.036Z,43.18
2023-04-19T11:37:03.557Z,44.28
2023-04-19T11:38:03.212Z,43.77
2023-04-19T11:39:03.413Z,44.38
2023-04-19T11:40:04.861Z,43.50
2023-04-19T11:41:03.417Z,43.40
2023-04-19T11:42:02.967Z,43.82
2023-04-19T11:43:03.089Z,43.44
2023-04-19T11:44:03.252Z,44.14
2023-04-19T11:45:03.003Z,43.96
2023-04-19T11:46:03.194Z,43.76
2023-04-19T11:47:03.133Z,44.48
2023-04-19T11:48:03.152Z,44.68
2023-04-19T11:49:02.984Z,45.18
2023-04-19T11:50:03.127Z,44.28
2023-04-19T11:51:02.944Z,44.99
2023-04-19T11:52:05.704Z,46.69
2023-04-19T11:53:03.745Z,44.87
2023-04-19T11:54:03.631Z,44.76
2023-04-19T11:55:03.483Z,45.17
2023-04-19T11:56:03.472Z,44.26
2023-04-19T11:57:03.371Z,43.18
2023-04-19T11:58:03.029Z,44.00
2023-04-19T11:59:03.102Z,44.10
2023-04-19T12:00:03.316Z,44.20
2023-04-19T12:01:03.456Z,44.18
2023-04-19T12:02:02.713Z,43.58
2023-04-19T12:03:02.903Z,44.00
2023-04-19T12:04:02.226Z,44.00
2023-04-19T12:05:02.730Z,44.91
2023-04-19T12:06:02.792Z,43.38
2023-04-19T12:07:03.231Z,43.40
2023-04-19T12:08:03.106Z,43.70
2023-04-19T12:09:03.104Z,43.60
2023-04-19T12:10:02.818Z,42.80
2023-04-19T12:11:02.794Z,42.69
2023-04-19T12:12:03.615Z,43.30
2023-04-19T12:13:03.565Z,42.10
2023-04-19T12:14:03.685Z,42.49
2023-04-19T12:15:03.569Z,42.60
2023-04-19T12:16:03.775Z,43.60
2023-04-19T12:17:03.296Z,41.59
2023-04-19T12:18:03.043Z,41.89
2023-04-19T12:19:02.811Z,41.37
2023-04-19T12:20:02.895Z,41.75
2023-04-19T12:21:03.059Z,40.65
2023-04-19T12:22:03.727Z,39.66
2023-04-19T12:23:03.705Z,40.45
2023-04-19T12:24:03.200Z,40.15
2023-04-19T12:25:03.379Z,40.15
2023-04-19T12:26:03.483Z,41.37
2023-04-19T12:28:02.774Z,39.97
2023-04-19T12:28:14.594Z,40.57
2023-04-19T12:29:03.030Z,40.77
2023-04-19T12:30:02.909Z,40.47
2023-04-19T12:31:02.935Z,40.67
2023-04-19T12:32:03.137Z,41.57
2023-04-19T12:33:03.212Z,39.36
2023-04-19T12:34:03.120Z,39.08
2023-04-19T12:35:03.275Z,39.28
2023-04-19T12:36:03.719Z,39.78
2023-04-19T12:37:03.508Z,40.69
2023-04-19T12:38:03.266Z,39.69
2023-04-19T12:39:02.919Z,38.88
2023-04-19T12:40:02.906Z,38.58
2023-04-19T12:41:03.038Z,38.29
2023-04-19T12:42:03.118Z,37.99
2023-04-19T12:43:02.363Z,38.60
2023-04-19T12:44:02.692Z,37.99
2023-04-19T12:45:02.638Z,38.09
2023-04-19T12:46:02.855Z,38.49
2023-04-19T12:47:02.626Z,37.91
2023-04-19T12:48:02.584Z,37.30
2023-04-19T12:49:02.632Z,36.50
2023-04-19T12:50:02.778Z,37.23
2023-04-19T12:51:02.930Z,36.42
2023-04-19T12:52:03.005Z,37.93
2023-04-19T12:53:02.935Z,37.81
2023-04-19T12:54:03.092Z,36.00
2023-04-19T12:55:02.970Z,34.59
2023-04-19T12:56:03.039Z,35.80
2023-04-19T12:57:03.633Z,34.99
2023-04-19T12:58:03.602Z,34.11
2023-04-19T12:59:03.770Z,34.41
2023-04-19T13:00:03.524Z,35.93